createdAt,value
2023-03-27T00:00:37.208Z,98474.47
2023-03-27T00:03:41.392Z,98475.06
2023-03-27T00:06:45.579Z,98468.81
2023-03-27T00:09:48.671Z,98471.44
2023-03-27T00:12:51.311Z,98468.97
2023-03-27T00:15:55.551Z,98457.19
2023-03-27T00:18:58.813Z,98450.88
2023-03-27T00:22:02.128Z,98454.91
2023-03-27T00:25:05.558Z,98446.41
2023-03-27T00:28:09.213Z,98439.22
2023-03-27T00:31:14.393Z,98437.94
2023-03-27T00:34:17.879Z,98438.25
2023-03-27T00:37:20.859Z,98423.44
2023-03-27T00:40:25.708Z,98422.66
2023-03-27T00:43:34.130Z,98410.88
2023-03-27T00:46:43.906Z,98404.94
2023-03-27T00:49:48.278Z,98403.34
2023-03-27T00:52:56.372Z,98402.81
2023-03-27T00:56:02.967Z,98392.28
2023-03-27T00:59:14.818Z,98382.53
2023-03-27T01:02:18.564Z,98380.06
2023-03-27T01:05:22.255Z,98375.69
2023-03-27T01:08:27.299Z,98372.63
2023-03-27T01:11:39.740Z,98369.59
2023-03-27T01:15:04.758Z,98360.16
2023-03-27T01:18:32.557Z,98351.69
2023-03-27T01:22:27.151Z,98352.44
2023-03-27T01:26:04.630Z,98343.78
2023-03-27T01:29:31.044Z,98344.38
2023-03-27T01:32:50.017Z,98346.34
2023-03-27T01:35:55.840Z,98327.25
2023-03-27T01:39:30.033Z,98328.81
2023-03-27T01:42:50.068Z,98328.28
2023-03-27T01:46:01.912Z,98323.22
2023-03-27T01:49:12.991Z,98323.00
2023-03-27T01:52:25.386Z,98321.41
2023-03-27T01:55:32.860Z,98317.13
2023-03-27T01:58:42.058Z,98314.66
2023-03-27T02:01:51.388Z,98317.44
2023-03-27T02:05:16.265Z,98302.88
2023-03-27T02:08:55.584Z,98297.03
2023-03-27T02:12:16.846Z,98302.28
2023-03-27T02:15:25.543Z,98305.59
2023-03-27T02:18:34.292Z,98293.72
2023-03-27T02:21:37.798Z,98293.13
2023-03-27T02:24:43.660Z,98289.53
2023-03-27T02:27:50.184Z,98297.34
2023-03-27T02:31:32.364Z,98282.03
2023-03-27T02:34:58.889Z,98273.69
2023-03-27T02:38:02.680Z,98248.00
2023-03-27T02:41:19.516Z,98232.84
2023-03-27T02:44:25.826Z,98216.78
2023-03-27T02:47:39.654Z,98212.81
2023-03-27T02:50:56.580Z,98212.50
2023-03-27T02:54:05.104Z,98211.66
2023-03-27T02:57:15.123Z,98209.72
2023-03-27T03:00:28.532Z,98215.41
2023-03-27T03:03:41.979Z,98198.69
2023-03-27T03:06:45.750Z,98200.25
2023-03-27T03:09:48.960Z,98193.34
2023-03-27T03:12:51.894Z,98194.41
2023-03-27T03:15:55.134Z,98188.31
2023-03-27T03:18:58.799Z,98193.97
2023-03-27T03:22:09.061Z,98199.94
2023-03-27T03:25:13.031Z,98190.38
2023-03-27T03:28:18.706Z,98187.87
2023-03-27T03:31:22.573Z,98193.47
2023-03-27T03:34:28.077Z,98182.91
2023-03-27T03:37:38.854Z,98187.94
2023-03-27T03:40:43.021Z,98191.41
2023-03-27T03:43:46.058Z,98182.84
2023-03-27T03:46:49.207Z,98184.50
2023-03-27T03:49:55.868Z,98180.81
2023-03-27T03:53:00.821Z,98174.88
2023-03-27T03:56:05.422Z,98179.97
2023-03-27T03:59:10.080Z,98167.00
2023-03-27T04:02:13.189Z,98168.97
2023-03-27T04:05:17.109Z,98162.44
2023-03-27T04:08:20.152Z,98160.62
2023-03-27T04:11:24.783Z,98161.12
2023-03-27T04:14:28.012Z,98167.75
2023-03-27T04:17:33.575Z,98171.44
2023-03-27T04:20:37.530Z,98181.50
2023-03-27T04:23:46.017Z,98168.34
2023-03-27T04:26:49.192Z,98169.69
2023-03-27T04:29:54.960Z,98167.91
2023-03-27T04:33:03.711Z,98159.78
2023-03-27T04:36:11.505Z,98168.88
2023-03-27T04:39:18.001Z,98165.13
2023-03-27T04:42:23.468Z,98162.81
2023-03-27T04:45:27.242Z,98161.53
2023-03-27T04:48:30.569Z,98163.78
2023-03-27T04:51:33.687Z,98156.56
2023-03-27T04:54:37.309Z,98158.22
2023-03-27T04:57:39.972Z,98151.41
2023-03-27T05:00:50.793Z,98147.25
2023-03-27T05:03:56.411Z,98140.44
2023-03-27T05:07:03.346Z,98137.44
2023-03-27T05:10:06.882Z,98128.88
2023-03-27T05:13:12.723Z,98129.38
2023-03-27T05:16:17.543Z,98128.88
2023-03-27T05:19:21.780Z,98122.94
2023-03-27T05:22:25.417Z,98119.31
2023-03-27T05:25:32.061Z,98113.72
2023-03-27T05:28:34.880Z,98111.31
2023-03-27T05:31:38.361Z,98114.56
2023-03-27T05:34:47.006Z,98116.13
2023-03-27T05:37:53.175Z,98115.50
2023-03-27T05:40:57.510Z,98121.97
2023-03-27T05:44:01.474Z,98116.34
2023-03-27T05:47:06.758Z,98115.06
2023-03-27T05:50:10.585Z,98106.34
2023-03-27T05:53:14.034Z,98102.59
2023-03-27T05:56:17.541Z,98108.81
2023-03-27T05:59:22.406Z,98102.00
2023-03-27T06:02:27.858Z,98099.53
2023-03-27T06:05:32.502Z,98098.69
2023-03-27T06:08:38.857Z,98098.41
2023-03-27T06:11:42.846Z,98095.78
2023-03-27T06:14:45.722Z,98098.84
2023-03-27T06:17:52.195Z,98090.44
2023-03-27T06:20:55.682Z,98088.34
2023-03-27T06:24:00.839Z,98083.03
2023-03-27T06:27:03.872Z,98091.88
2023-03-27T06:30:08.154Z,98085.25
2023-03-27T06:33:12.862Z,98084.47
2023-03-27T06:36:16.257Z,98086.91
2023-03-27T06:39:20.601Z,98086.50
2023-03-27T06:42:24.108Z,98082.53
2023-03-27T06:45:31.188Z,98085.66
2023-03-27T06:48:36.823Z,98079.41
2023-03-27T06:51:39.841Z,98082.69
2023-03-27T06:54:42.745Z,98084.59
2023-03-27T06:57:51.171Z,98085.59
2023-03-27T07:00:55.406Z,98078.41
2023-03-27T07:04:02.276Z,98083.72
2023-03-27T07:07:09.476Z,98083.66
2023-03-27T07:10:13.392Z,98082.25
2023-03-27T07:13:16.681Z,98092.22
2023-03-27T07:16:19.940Z,98092.47
2023-03-27T07:19:23.260Z,98098.47
2023-03-27T07:22:27.339Z,98102.22
2023-03-27T07:25:37.274Z,98097.19
2023-03-27T07:28:42.390Z,98092.09
2023-03-27T07:31:57.678Z,98090.31
2023-03-27T07:35:05.299Z,98097.91
2023-03-27T07:38:12.593Z,98095.44
2023-03-27T07:41:17.550Z,98101.03
2023-03-27T07:44:23.114Z,98103.16
2023-03-27T07:47:27.189Z,98103.28
2023-03-27T07:50:33.767Z,98104.84
2023-03-27T07:53:37.198Z,98106.97
2023-03-27T07:56:40.981Z,98098.56
2023-03-27T07:59:57.350Z,98104.22
2023-03-27T08:03:09.550Z,98111.53
2023-03-27T08:06:14.041Z,98100.66
2023-03-27T08:09:17.279Z,98098.69
2023-03-27T08:12:22.308Z,98102.72
2023-03-27T08:15:26.555Z,98103.44
2023-03-27T08:18:30.212Z,98111.69
2023-03-27T08:21:34.306Z,98114.47
2023-03-27T08:24:46.555Z,98112.06
2023-03-27T08:27:51.176Z,98119.72
2023-03-27T08:31:02.544Z,98113.00
2023-03-27T08:34:09.454Z,98124.84
2023-03-27T08:37:17.252Z,98127.25
2023-03-27T08:40:28.237Z,98131.22
2023-03-27T08:43:39.010Z,98134.06
2023-03-27T08:46:58.272Z,98138.94
2023-03-27T08:50:09.993Z,98145.78
2023-03-27T08:53:41.703Z,98157.06
2023-03-27T08:56:46.713Z,98148.25
2023-03-27T08:59:57.777Z,98150.94
2023-03-27T09:03:09.803Z,98148.16
2023-03-27T09:06:33.109Z,98138.78
2023-03-27T09:09:46.766Z,98151.97
2023-03-27T09:13:15.475Z,98156.09
2023-03-27T09:16:49.540Z,98150.44
2023-03-27T09:20:23.820Z,98151.09
2023-03-27T09:23:57.822Z,98149.72
2023-03-27T09:27:13.958Z,98163.53
2023-03-27T09:30:24.524Z,98159.97
2023-03-27T09:33:50.980Z,98163.22
2023-03-27T09:36:56.415Z,98161.75
2023-03-27T09:40:02.103Z,98159.47
2023-03-27T09:43:12.739Z,98158.72
2023-03-27T09:46:21.043Z,98159.50
2023-03-27T09:49:27.880Z,98171.84
2023-03-27T09:52:42.995Z,98175.03
2023-03-27T09:56:01.072Z,98180.31
2023-03-27T09:59:25.625Z,98188.72
2023-03-27T10:02:33.353Z,98192.66
2023-03-27T10:05:37.173Z,98197.09
2023-03-27T10:08:47.534Z,98204.00
2023-03-27T10:12:00.116Z,98196.22
2023-03-27T10:15:07.001Z,98205.44
2023-03-27T10:18:27.226Z,98203.19
2023-03-27T10:21:39.866Z,98201.44
2023-03-27T10:24:47.575Z,98204.44
2023-03-27T10:27:52.975Z,98210.09
2023-03-27T10:31:24.023Z,98211.06
2023-03-27T10:34:52.807Z,98220.97
2023-03-27T10:37:58.064Z,98214.75
2023-03-27T10:41:05.024Z,98212.88
2023-03-27T10:44:26.127Z,98221.78
2023-03-27T10:47:33.781Z,98216.25
2023-03-27T10:50:45.989Z,98226.63
2023-03-27T10:53:57.366Z,98229.22
2023-03-27T10:57:17.605Z,98234.91
2023-03-27T11:00:33.296Z,98228.00
2023-03-27T11:03:59.599Z,98232.69
2023-03-27T11:07:14.833Z,98231.53
2023-03-27T11:10:30.922Z,98227.97
2023-03-27T11:13:41.274Z,98234.66
2023-03-27T11:16:57.217Z,98243.47
2023-03-27T11:20:16.312Z,98239.34
2023-03-27T11:23:33.537Z,98252.03
2023-03-27T11:26:57.512Z,98255.56
2023-03-27T11:30:08.773Z,98258.97
2023-03-27T11:33:32.285Z,98256.09
2023-03-27T11:37:02.227Z,98257.78
2023-03-27T11:40:23.886Z,98259.91
2023-03-27T11:43:51.451Z,98264.72
2023-03-27T11:47:31.649Z,98252.56
2023-03-27T11:50:53.442Z,98257.03
2023-03-27T11:54:42.955Z,98273.38
2023-03-27T11:58:24.930Z,98271.37
2023-03-27T12:01:56.257Z,98265.19
2023-03-27T12:05:21.061Z,98269.13
2023-03-27T12:08:55.937Z,98277.87
2023-03-27T12:12:45.773Z,98273.28
2023-03-27T12:16:05.366Z,98281.84
2023-03-27T12:19:28.361Z,98286.31
2023-03-27T12:23:29.781Z,98290.31
2023-03-27T12:26:45.202Z,98300.47
2023-03-27T12:30:19.007Z,98297.84
2023-03-27T12:33:33.785Z,98298.78
2023-03-27T12:36:39.829Z,98313.19
2023-03-27T12:39:51.992Z,98308.28
2023-03-27T12:43:04.366Z,98321.00
2023-03-27T12:46:10.784Z,98321.16
2023-03-27T12:49:14.028Z,98322.91
2023-03-27T12:52:19.492Z,98333.06
2023-03-27T12:55:36.328Z,98341.66
2023-03-27T12:58:41.603Z,98334.31
2023-03-27T13:01:52.174Z,98335.25
2023-03-27T13:05:24.104Z,98331.50
2023-03-27T13:09:04.140Z,98349.47
2023-03-27T13:12:29.419Z,98357.94
2023-03-27T13:15:58.614Z,98352.44
2023-03-27T13:19:20.392Z,98372.03
2023-03-27T13:22:27.982Z,98386.88
2023-03-27T13:25:58.641Z,98395.78
2023-03-27T13:29:20.804Z,98404.91
2023-03-27T13:32:40.178Z,98406.53
2023-03-27T13:36:00.508Z,98419.25
2023-03-27T13:39:24.942Z,98419.62
2023-03-27T13:42:34.884Z,98444.81
2023-03-27T13:45:49.512Z,98446.63
2023-03-27T13:49:15.960Z,98447.19
2023-03-27T13:52:32.510Z,98460.56
2023-03-27T13:56:13.201Z,98469.84
2023-03-27T13:59:19.649Z,98480.97
2023-03-27T14:02:53.894Z,98495.09
2023-03-27T14:06:04.803Z,98503.59
2023-03-27T14:09:08.311Z,98516.00
2023-03-27T14:12:42.731Z,98528.72
2023-03-27T14:16:10.818Z,98544.41
2023-03-27T14:19:23.792Z,98552.03
2023-03-27T14:22:40.232Z,98565.19
2023-03-27T14:26:01.807Z,98581.84
2023-03-27T14:29:05.990Z,98571.44
2023-03-27T14:32:18.863Z,98580.78
2023-03-27T14:35:29.404Z,98594.66
2023-03-27T14:38:37.440Z,98606.03
2023-03-27T14:41:59.385Z,98613.47
2023-03-27T14:45:30.433Z,98627.97
2023-03-27T14:48:37.116Z,98629.50
2023-03-27T14:51:42.191Z,98647.56
2023-03-27T14:54:54.697Z,98639.53
2023-03-27T14:58:10.863Z,98644.56
2023-03-27T15:01:17.327Z,98659.78
2023-03-27T15:04:25.385Z,98683.22
2023-03-27T15:07:34.144Z,98666.22
2023-03-27T15:10:51.291Z,98665.72
2023-03-27T15:13:57.275Z,98673.81
2023-03-27T15:17:11.898Z,98699.50
2023-03-27T15:20:20.168Z,98677.16
2023-03-27T15:23:36.959Z,98702.72
2023-03-27T15:26:41.200Z,98707.34
2023-03-27T15:30:10.353Z,98728.50
2023-03-27T15:33:26.086Z,98736.94
2023-03-27T15:36:34.384Z,98714.47
2023-03-27T15:39:57.778Z,98740.34
2023-03-27T15:43:05.716Z,98769.31
2023-03-27T15:46:17.753Z,98777.53
2023-03-27T15:49:26.507Z,98785.41
2023-03-27T15:52:33.923Z,98785.62
2023-03-27T15:55:47.414Z,98803.69
2023-03-27T15:58:57.495Z,98793.53
2023-03-27T16:02:14.631Z,98815.50
2023-03-27T16:05:18.640Z,98840.38
2023-03-27T16:08:48.247Z,98834.59
2023-03-27T16:11:54.204Z,98855.28
2023-03-27T16:14:58.179Z,98859.66
2023-03-27T16:18:24.824Z,98875.38
2023-03-27T16:21:28.112Z,98868.25
2023-03-27T16:24:31.000Z,98878.53
2023-03-27T16:27:39.964Z,98904.69
2023-03-27T16:30:45.926Z,98914.84
2023-03-27T16:33:48.531Z,98912.47
2023-03-27T16:36:51.586Z,98909.34
2023-03-27T16:39:55.288Z,98923.97
2023-03-27T16:42:58.227Z,98938.66
2023-03-27T16:46:01.052Z,98938.78
2023-03-27T16:49:04.409Z,98963.97
2023-03-27T16:52:07.422Z,98982.03
2023-03-27T16:55:13.067Z,98982.13
2023-03-27T16:58:16.848Z,98989.97
2023-03-27T17:01:24.064Z,98998.09
2023-03-27T17:04:28.388Z,98983.81
2023-03-27T17:07:31.901Z,99013.47
2023-03-27T17:10:35.428Z,99022.56
2023-03-27T17:13:42.899Z,99033.00
2023-03-27T17:16:47.585Z,99041.66
2023-03-27T17:19:50.855Z,99046.56
2023-03-27T17:22:53.959Z,99046.78
2023-03-27T17:26:00.938Z,99056.16
2023-03-27T17:29:06.809Z,99061.72
2023-03-27T17:32:11.195Z,99075.09
2023-03-27T17:35:14.326Z,99074.66
2023-03-27T17:38:19.248Z,99097.44
2023-03-27T17:41:22.452Z,99100.78
2023-03-27T17:44:26.653Z,99103.50
2023-03-27T17:47:29.966Z,99119.03
2023-03-27T17:50:34.296Z,99114.03
2023-03-27T17:53:39.088Z,99126.88
2023-03-27T17:56:42.844Z,99133.56
2023-03-27T17:59:47.888Z,99137.19
2023-03-27T18:02:52.159Z,99148.47
2023-03-27T18:06:03.899Z,99166.31
2023-03-27T18:09:08.023Z,99164.66
2023-03-27T18:12:11.645Z,99165.59
2023-03-27T18:15:14.820Z,99175.41
2023-03-27T18:18:20.524Z,99187.69
2023-03-27T18:21:23.913Z,99188.53
2023-03-27T18:24:27.158Z,99203.25
2023-03-27T18:27:30.394Z,99197.25
2023-03-27T18:30:37.559Z,99189.41
2023-03-27T18:33:40.581Z,99210.72
2023-03-27T18:36:50.858Z,99206.13
2023-03-27T18:39:53.899Z,99208.63
2023-03-27T18:42:57.393Z,99219.31
2023-03-27T18:46:04.160Z,99228.47
2023-03-27T18:49:21.447Z,99227.78
2023-03-27T18:52:27.811Z,99242.78
2023-03-27T18:55:32.400Z,99253.13
2023-03-27T18:58:36.386Z,99257.69
2023-03-27T19:01:39.876Z,99234.41
2023-03-27T19:04:44.262Z,99275.31
2023-03-27T19:07:47.818Z,99266.91
2023-03-27T19:10:55.445Z,99278.94
2023-03-27T19:13:59.251Z,99275.00
2023-03-27T19:17:04.152Z,99273.41
2023-03-27T19:20:11.216Z,99282.56
2023-03-27T19:23:16.263Z,99284.87
2023-03-27T19:26:20.448Z,99257.72
2023-03-27T19:29:23.335Z,99287.19
2023-03-27T19:32:27.082Z,99300.59
2023-03-27T19:35:30.501Z,99300.78
2023-03-27T19:38:34.071Z,99301.97
2023-03-27T19:41:36.691Z,99317.81
2023-03-27T19:44:40.344Z,99311.75
2023-03-27T19:47:43.708Z,99325.91
2023-03-27T19:50:57.777Z,99332.97
2023-03-27T19:54:02.000Z,99326.25
2023-03-27T19:57:07.501Z,99338.66
2023-03-27T20:00:12.869Z,99334.81
2023-03-27T20:03:19.834Z,99348.50
2023-03-27T20:06:26.040Z,99340.88
2023-03-27T20:09:29.193Z,99346.09
2023-03-27T20:12:33.198Z,99342.00
2023-03-27T20:15:39.341Z,99368.13
2023-03-27T20:18:42.788Z,99357.62
2023-03-27T20:21:46.436Z,99370.81
2023-03-27T20:24:50.247Z,99376.37
2023-03-27T20:27:52.885Z,99364.84
2023-03-27T20:31:03.175Z,99365.97
2023-03-27T20:34:07.075Z,99379.56
2023-03-27T20:37:13.215Z,99367.06
2023-03-27T20:40:17.818Z,99392.66
2023-03-27T20:43:23.092Z,99372.88
2023-03-27T20:46:30.533Z,99402.44
2023-03-27T20:49:41.233Z,99397.97
2023-03-27T20:52:48.352Z,99404.28
2023-03-27T20:56:00.046Z,99412.09
2023-03-27T20:59:03.173Z,99403.53
2023-03-27T21:02:06.849Z,99413.44
2023-03-27T21:05:09.709Z,99414.47
2023-03-27T21:08:13.398Z,99416.22
2023-03-27T21:11:17.955Z,99397.97
2023-03-27T21:14:21.190Z,99416.31
2023-03-27T21:17:24.250Z,99406.84
2023-03-27T21:20:27.594Z,99422.47
2023-03-27T21:23:30.762Z,99431.03
2023-03-27T21:26:34.642Z,99436.59
2023-03-27T21:29:37.452Z,99442.78
2023-03-27T21:32:40.813Z,99435.22
2023-03-27T21:35:47.062Z,99448.41
2023-03-27T21:38:50.483Z,99462.19
2023-03-27T21:41:53.454Z,99458.91
2023-03-27T21:44:57.445Z,99466.06
2023-03-27T21:48:00.357Z,99454.88
2023-03-27T21:51:06.700Z,99476.72
2023-03-27T21:54:09.312Z,99482.25
2023-03-27T21:57:12.132Z,99481.59
2023-03-27T22:00:15.783Z,99492.00
2023-03-27T22:03:19.665Z,99502.22
2023-03-27T22:06:22.291Z,99510.97
2023-03-27T22:09:25.268Z,99521.87
2023-03-27T22:12:28.268Z,99517.09
2023-03-27T22:15:31.582Z,99508.66
2023-03-27T22:18:34.995Z,99521.69
2023-03-27T22:21:39.521Z,99531.44
2023-03-27T22:24:42.340Z,99531.28
2023-03-27T22:27:47.315Z,99538.56
2023-03-27T22:30:51.647Z,99536.19
2023-03-27T22:33:54.760Z,99539.47
2023-03-27T22:36:57.562Z,99547.38
2023-03-27T22:40:00.809Z,99547.28
2023-03-27T22:43:03.294Z,99553.56
2023-03-27T22:46:14.763Z,99556.25
2023-03-27T22:49:17.306Z,99564.28
2023-03-27T22:52:20.686Z,99567.28
2023-03-27T22:55:23.173Z,99575.47
2023-03-27T22:58:27.706Z,99587.34
2023-03-27T23:01:30.388Z,99580.75
2023-03-27T23:04:33.404Z,99591.25
2023-03-27T23:07:36.256Z,99588.78
2023-03-27T23:10:39.731Z,99593.31
2023-03-27T23:13:42.402Z,99592.47
2023-03-27T23:16:45.633Z,99612.59
2023-03-27T23:19:48.260Z,99613.06
2023-03-27T23:22:51.292Z,99618.63
2023-03-27T23:25:55.413Z,99619.66
2023-03-27T23:28:58.438Z,99632.72
2023-03-27T23:32:02.187Z,99628.66
2023-03-27T23:35:07.446Z,99641.59
2023-03-27T23:38:10.313Z,99641.00
2023-03-27T23:41:16.245Z,99637.91
2023-03-27T23:44:19.808Z,99647.19
2023-03-27T23:47:22.646Z,99658.78
2023-03-27T23:50:27.346Z,99656.69
2023-03-27T23:53:30.904Z,99652.47
2023-03-27T23:56:33.888Z,99663.88
2023-03-27T23:59:37.917Z,99673.66
